.
WxDataArchive / Data Records for 2008-07-31
2008-07-30 July 2008 2008-08-01

Data Records for Thursday, 31 July 2008

Time	Temp	Chill	HIndex	Humid	Dewpt	 Wind 	HiWind	WindDir	Rain 	Barom 
-----	----	-----	------	-----	-----	------	------	-------	-----	----- 
00:00	73.9	73.9	73.9	80	67.3	0	2	90	0.00	29.695 
00:05	73.7	73.7	73.7	80	67.1	0	2	90	0.00	29.694 
00:10	73.5	73.5	73.5	80	66.9	0	1	90	0.00	29.696 
00:15	73.3	73.3	73.3	80	66.7	0	2	90	0.00	29.693 
00:20	73.3	73.3	73.3	80	66.7	0	1	90	0.00	29.695 
00:25	73.2	73.2	73.2	80	66.6	0	2	90	0.00	29.692 
00:30	73.0	73.0	73.0	81	66.8	0	2	112	0.00	29.693 
00:35	73.0	73.0	73.0	81	66.8	0	2	112	0.00	29.695 
00:40	73.0	73.0	73.0	81	66.8	1	3	248	0.00	29.694 
00:45	72.8	72.8	72.8	81	66.6	1	2	248	0.00	29.693 
00:50	72.8	72.8	72.8	81	66.6	1	3	248	0.00	29.693 
00:55	72.7	72.7	72.7	82	66.9	1	3	248	0.00	29.693 
01:00	72.7	72.7	72.7	82	66.9	1	3	248	0.00	29.692 
01:05	72.5	72.5	72.5	83	67.0	1	3	248	0.00	29.691 
01:10	72.5	72.5	72.5	83	67.0	1	3	270	0.00	29.690 
01:15	72.3	72.3	72.3	83	66.8	1	2	270	0.00	29.690 
01:20	72.1	72.1	72.1	84	67.0	0	2	270	0.00	29.690 
01:25	72.1	72.1	72.1	84	67.0	1	4	270	0.00	29.689 
01:30	72.0	72.0	72.0	84	66.9	0	2	270	0.00	29.688 
01:35	71.8	71.8	71.8	85	67.0	0	2	270	0.00	29.688 
01:40	71.8	71.8	71.8	85	67.0	0	1	270	0.00	29.688 
01:45	71.6	71.6	71.6	85	66.8	0	2	270	0.00	29.688 
01:50	71.6	71.6	71.6	86	67.2	1	3	270	0.00	29.688 
01:55	71.5	71.5	71.5	86	67.1	1	2	270	0.00	29.687 
02:00	71.5	71.5	71.5	86	67.1	0	2	270	0.00	29.688 
02:05	71.5	71.5	71.5	86	67.1	0	2	270	0.00	29.687 
02:10	71.3	71.3	71.3	86	66.9	0	2	270	0.00	29.686 
02:15	71.3	71.3	71.3	87	67.2	0	2	270	0.00	29.684 
02:20	71.1	71.1	71.1	87	67.0	0	2	270	0.00	29.683 
02:25	71.1	71.1	71.1	87	67.0	1	2	270	0.00	29.685 
02:30	71.1	71.1	71.1	88	67.4	1	2	270	0.00	29.684 
02:35	71.1	71.1	71.1	88	67.4	1	2	270	0.00	29.684 
02:40	70.9	70.9	70.9	88	67.2	0	1	270	0.00	29.683 
02:45	70.8	70.8	70.8	88	67.1	0	1	270	0.00	29.681 
02:50	70.8	70.8	70.8	88	67.1	0	1	270	0.00	29.680 
02:55	70.6	70.6	70.6	88	66.9	0	2	270	0.00	29.677 
03:00	70.6	70.6	70.6	89	67.2	0	1	270	0.00	29.676 
03:05	70.4	70.4	70.4	89	67.0	0	2	270	0.00	29.676 
03:10	70.3	70.3	70.3	89	66.9	0	2	270	0.00	29.676 
03:15	70.3	70.3	70.3	90	67.2	0	1	270	0.00	29.676 
03:20	70.1	70.1	70.1	90	67.0	0	2	270	0.00	29.676 
03:25	70.1	70.1	70.1	90	67.0	0	2	270	0.00	29.676 
03:30	69.9	69.9	69.9	90	66.8	0	2	270	0.00	29.677 
03:35	69.9	69.9	69.9	91	67.1	1	2	270	0.00	29.678 
03:40	69.8	69.8	69.8	91	67.0	0	2	270	0.00	29.679 
03:45	69.6	69.6	69.6	91	66.8	0	1	270	0.00	29.681 
03:50	69.6	69.6	69.6	91	66.8	0	1	270	0.00	29.681 
03:55	69.4	69.4	69.4	91	66.7	0	1	270	0.00	29.681 
04:00	69.3	69.3	69.3	92	66.9	0	2	270	0.00	29.679 
04:05	69.3	69.3	69.3	92	66.9	0	2	270	0.00	29.678 
04:10	69.1	69.1	69.1	92	66.7	0	1	270	0.00	29.677 
04:15	69.1	69.1	69.1	92	66.7	0	1	270	0.00	29.676 
04:20	68.9	68.9	68.9	92	66.5	0	1	270	0.00	29.677 
04:25	68.9	68.9	68.9	92	66.5	0	1	270	0.00	29.677 
04:30	68.8	68.8	68.8	92	66.4	0	1	270	0.00	29.676 
04:35	68.8	68.8	68.8	93	66.7	0	1	270	0.00	29.676 
04:40	68.8	68.8	68.8	93	66.7	0	1	270	0.00	29.677 
04:45	68.6	68.6	68.6	93	66.5	0	2	270	0.00	29.676 
04:50	68.6	68.6	68.6	93	66.5	0	1	270	0.00	29.676 
04:55	68.6	68.6	68.6	93	66.5	0	1	270	0.00	29.676 
05:00	68.4	68.4	68.4	93	66.3	0	1	270	0.00	29.677 
05:05	68.4	68.4	68.4	94	66.6	0	1	270	0.00	29.680 
05:10	68.4	68.4	68.4	94	66.6	0	1	270	0.00	29.680 
05:15	68.3	68.3	68.3	94	66.5	0	1	270	0.00	29.680 
05:20	68.3	68.3	68.3	94	66.5	0	1	270	0.00	29.680 
05:25	68.1	68.1	68.1	94	66.3	0	1	270	0.00	29.680 
05:30	68.1	68.1	68.1	94	66.3	0	1	270	0.00	29.681 
05:35	68.1	68.1	68.1	94	66.3	0	1	270	0.00	29.681 
05:40	68.1	68.1	68.1	94	66.3	0	2	270	0.00	29.681 
05:45	68.3	68.3	68.3	95	66.8	0	1	270	0.00	29.682 
05:50	68.4	68.4	68.4	95	66.9	0	1	270	0.00	29.683 
05:55	68.4	68.4	68.4	95	66.9	0	2	270	0.00	29.684 
06:00	68.6	68.6	68.6	95	67.1	0	1	270	0.00	29.684 
06:05	68.6	68.6	68.6	95	67.1	0	2	292	0.00	29.688 
06:10	68.8	68.8	68.8	95	67.3	0	2	292	0.00	29.690 
06:15	68.8	68.8	68.8	95	67.3	0	1	292	0.00	29.690 
06:20	68.8	68.8	68.8	95	67.3	0	1	292	0.00	29.690 
06:25	68.9	68.9	68.9	95	67.4	0	1	292	0.00	29.690 
06:30	68.9	68.9	68.9	95	67.4	0	1	292	0.00	29.690 
06:35	68.9	68.9	68.9	95	67.4	0	2	292	0.00	29.692 
06:40	68.9	68.9	68.9	95	67.4	0	2	292	0.00	29.693 
06:45	68.9	68.9	68.9	95	67.4	0	1	292	0.00	29.693 
06:50	68.9	68.9	68.9	95	67.4	0	3	292	0.00	29.694 
06:55	69.1	69.1	69.1	96	67.9	0	2	292	0.00	29.695 
07:00	69.1	69.1	69.1	96	67.9	0	2	292	0.00	29.695 
07:05	69.1	69.1	69.1	96	67.9	0	1	292	0.00	29.697 
07:10	69.3	69.3	69.3	96	68.1	0	2	292	0.00	29.697 
07:15	69.3	69.3	69.3	96	68.1	0	2	292	0.00	29.698 
07:20	69.4	69.4	69.4	96	68.2	0	1	292	0.00	29.700 
07:25	69.4	69.4	69.4	96	68.2	0	1	292	0.00	29.696 
07:30	69.6	69.6	69.6	96	68.4	0	2	292	0.00	29.700 
07:35	69.6	69.6	69.6	95	68.1	1	2	292	0.00	29.701 
07:40	69.8	69.8	69.8	95	68.3	0	3	315	0.00	29.703 
07:45	69.9	69.9	69.9	95	68.4	0	2	315	0.00	29.702 
07:50	70.3	70.3	70.3	95	68.8	0	1	315	0.00	29.702 
07:55	70.3	70.3	70.3	95	68.8	0	2	315	0.00	29.701 
08:00	70.4	70.4	70.4	94	68.6	0	1	315	0.00	29.701 
08:05	70.6	70.6	70.6	93	68.5	0	2	315	0.00	29.704 
08:10	70.8	70.8	70.8	93	68.7	1	2	315	0.00	29.704 
08:15	71.1	71.1	71.1	92	68.7	1	2	315	0.00	29.704 
08:20	71.1	71.1	71.1	91	68.3	1	2	315	0.00	29.705 
08:25	71.6	71.6	71.6	90	68.5	1	2	315	0.00	29.705 
08:30	72.3	72.3	72.3	88	68.5	1	3	315	0.00	29.707 
08:35	72.8	72.8	72.8	86	68.4	1	3	248	0.00	29.704 
08:40	73.3	73.3	73.3	85	68.5	1	2	292	0.00	29.706 
08:45	73.7	73.7	73.7	83	68.2	1	2	292	0.00	29.707 
08:50	74.2	74.2	74.2	82	68.3	1	3	292	0.00	29.707 
08:55	74.7	74.7	74.7	81	68.5	1	3	292	0.00	29.703 
09:00	74.9	74.9	74.9	81	68.7	1	3	292	0.00	29.703 
09:05	75.4	75.4	76.1	80	68.8	1	3	315	0.00	29.703 
09:10	75.8	75.8	76.9	78	68.4	1	2	315	0.00	29.700 
09:15	76.0	76.0	77.2	78	68.6	1	4	292	0.00	29.700 
09:20	76.5	76.5	77.9	78	69.1	1	2	292	0.00	29.705 
09:25	77.0	77.0	78.7	77	69.2	1	2	292	0.00	29.706 
09:30	77.7	77.7	79.7	75	69.1	1	2	270	0.00	29.706 
09:35	78.1	78.1	80.3	73	68.7	1	3	270	0.00	29.705 
09:40	78.5	78.5	80.8	72	68.7	1	3	270	0.00	29.706 
09:45	78.6	78.6	80.9	71	68.4	1	3	270	0.00	29.706 
09:50	79.2	79.2	81.8	71	69.0	1	3	270	0.00	29.705 
09:55	79.8	79.8	82.5	69	68.7	0	2	270	0.00	29.704 
10:00	79.9	79.9	82.5	67	67.9	0	2	270	0.00	29.704 
10:05	80.3	80.3	83.2	68	68.8	1	3	270	0.00	29.704 
10:10	80.7	80.7	83.5	66	68.3	1	2	270	0.00	29.702 
10:15	81.1	81.1	84.1	66	68.6	1	3	270	0.00	29.701 
10:20	81.4	81.4	84.3	64	68.0	1	2	292	0.00	29.701 
10:25	82.0	82.0	85.4	65	69.0	1	3	248	0.00	29.700 
10:30	82.4	82.4	85.8	64	69.0	1	3	248	0.00	29.702 
10:35	83.0	83.0	86.1	61	68.1	1	3	112	0.00	29.701 
10:40	83.4	83.4	86.3	59	67.5	1	2	0	0.00	29.701 
10:45	83.8	83.8	86.9	59	67.9	1	3	315	0.00	29.699 
10:50	84.0	84.0	86.3	55	66.1	1	3	270	0.00	29.695 
10:55	84.1	84.1	87.2	58	67.7	1	3	248	0.00	29.695 
11:00	84.3	84.3	86.7	55	66.3	1	3	248	0.00	29.700 
11:05	84.5	84.5	87.0	55	66.5	1	3	292	0.00	29.698 
11:10	84.7	84.7	87.6	56	67.2	1	2	292	0.00	29.697 
11:15	84.9	84.9	87.6	55	66.9	1	3	270	0.00	29.700 
11:20	85.5	85.5	88.6	55	67.5	1	3	270	0.00	29.701 
11:25	85.5	85.5	88.0	53	66.4	2	4	248	0.00	29.701 
11:30	85.7	85.7	88.0	52	66.0	1	2	248	0.00	29.701 
11:35	85.9	85.9	87.5	49	64.5	2	5	270	0.00	29.701 
11:40	85.7	85.7	87.2	49	64.3	1	4	315	0.00	29.702 
11:45	85.9	85.9	87.5	49	64.5	2	4	270	0.00	29.703 
11:50	86.1	86.1	88.0	50	65.3	2	4	248	0.00	29.703 
11:55	86.3	86.3	87.8	48	64.3	2	6	338	0.00	29.702 
12:00	86.1	86.1	87.0	46	62.9	2	6	315	0.00	29.704 
12:05	86.1	86.1	87.8	49	64.7	1	4	315	0.00	29.703 
12:10	85.7	85.7	86.7	47	63.1	2	5	270	0.00	29.704 
12:15	85.9	85.9	86.4	45	62.1	2	5	315	0.00	29.704 
12:20	87.2	87.2	88.2	45	63.2	2	5	270	0.00	29.704 
12:25	87.2	87.2	88.5	46	63.9	3	6	270	0.00	29.706 
12:30	87.0	87.0	86.4	39	59.0	2	4	270	0.00	29.704 
12:35	87.0	87.0	87.1	42	61.1	2	4	315	0.00	29.704 
12:40	86.7	86.7	86.5	41	60.1	2	5	315	0.00	29.702 
12:45	87.2	87.2	87.4	42	61.3	2	4	292	0.00	29.702 
12:50	87.4	87.4	87.1	40	60.1	2	4	270	0.00	29.701 
12:55	87.2	87.2	87.1	41	60.6	1	5	315	0.00	29.701 
13:00	87.6	87.6	87.9	42	61.6	2	5	292	0.00	29.695 
13:05	87.4	87.4	87.1	40	60.1	3	7	315	0.00	29.696 
13:10	87.4	87.4	87.1	40	60.1	2	5	315	0.00	29.697 
13:15	87.2	87.2	87.4	42	61.3	1	3	225	0.00	29.693 
13:20	86.5	86.5	86.5	42	60.6	1	3	248	0.00	29.693 
13:25	86.7	86.7	87.0	43	61.5	1	3	292	0.00	29.692 
13:30	87.6	87.6	87.6	41	60.9	2	4	248	0.00	29.688 
13:35	87.6	87.6	87.1	39	59.5	1	4	270	0.00	29.690 
13:40	86.7	86.7	86.3	40	59.5	2	4	315	0.00	29.689 
13:45	86.1	86.1	86.0	42	60.3	1	3	292	0.00	29.687 
13:50	85.7	85.7	85.5	42	59.9	2	4	248	0.00	29.683 
13:55	85.5	85.5	85.3	42	59.8	1	3	315	0.00	29.683 
14:00	85.3	85.3	85.5	44	60.9	1	3	315	0.00	29.683 
14:05	85.3	85.3	85.5	44	60.9	1	2	315	0.00	29.677 
14:10	85.9	85.9	86.2	44	61.4	2	4	270	0.00	29.677 
14:15	87.0	87.0	87.4	43	61.8	2	4	248	0.00	29.673 
14:20	87.6	87.6	88.2	43	62.3	1	3	292	0.00	29.673 
14:25	87.4	87.4	87.9	43	62.1	2	4	292	0.00	29.671 
14:30	87.0	87.0	87.4	43	61.8	1	6	315	0.00	29.670 
14:35	87.6	87.6	88.5	44	63.0	2	6	315	0.00	29.670 
14:40	87.6	87.6	87.6	41	60.9	3	10	315	0.00	29.669 
14:45	87.2	87.2	87.6	43	61.9	2	5	315	0.00	29.671 
14:50	86.5	86.5	87.2	45	62.6	1	4	270	0.00	29.671 
14:55	86.3	86.3	86.7	44	61.8	1	4	315	0.00	29.673 
15:00	86.1	86.1	87.0	46	62.9	1	3	292	0.00	29.673 
15:05	87.2	87.2	87.6	43	61.9	1	3	270	0.00	29.672 
15:10	88.0	88.0	88.7	43	62.7	1	4	315	0.00	29.672 
15:15	88.4	88.4	88.7	41	61.7	1	3	292	0.00	29.671 
15:20	88.8	88.8	89.0	40	61.3	2	5	315	0.00	29.670 
15:25	89.0	89.0	88.7	38	60.1	3	6	270	0.00	29.670 
15:30	89.0	89.0	88.4	37	59.3	2	5	270	0.00	29.671 
15:35	88.8	88.8	87.9	36	58.4	2	5	292	0.00	29.673 
15:40	88.2	88.2	86.9	35	57.0	2	5	315	0.00	29.671 
15:45	88.4	88.4	87.6	37	58.8	1	3	292	0.00	29.672 
15:50	88.8	88.8	87.6	35	57.6	2	4	270	0.00	29.671 
15:55	88.2	88.2	86.7	34	56.2	3	7	315	0.00	29.674 
16:00	88.4	88.4	87.4	36	58.0	1	4	315	0.00	29.674 
16:05	88.6	88.6	87.4	35	57.4	2	5	270	0.00	29.675 
16:10	88.0	88.0	87.1	37	58.4	1	5	270	0.00	29.675 
16:15	87.4	87.4	86.4	37	57.9	2	6	315	0.00	29.672 
16:20	87.4	87.4	86.7	38	58.6	2	5	315	0.00	29.676 
16:25	87.0	87.0	86.4	39	59.0	1	3	315	0.00	29.674 
16:30	87.0	87.0	86.0	37	57.5	1	4	315	0.00	29.675 
16:35	86.5	86.5	85.6	38	57.8	1	4	315	0.00	29.675 
16:40	86.3	86.3	85.6	39	58.4	1	3	315	0.00	29.673 
16:45	86.5	86.5	85.8	39	58.6	1	4	292	0.00	29.674 
16:50	86.3	86.3	85.6	39	58.4	1	3	315	0.00	29.676 
16:55	86.1	86.1	85.4	39	58.2	1	4	315	0.00	29.676 
17:00	86.7	86.7	85.8	38	58.0	2	5	292	0.00	29.680 
17:05	86.5	86.5	85.6	38	57.8	2	5	270	0.00	29.680 
17:10	86.1	86.1	85.4	39	58.2	1	3	315	0.00	29.679 
17:15	85.9	85.9	85.1	39	58.0	1	4	292	0.00	29.677 
17:20	86.3	86.3	85.4	38	57.7	1	4	292	0.00	29.677 
17:25	86.3	86.3	85.6	39	58.4	2	5	315	0.00	29.678 
17:30	86.1	86.1	85.4	39	58.2	1	5	315	0.00	29.676 
17:35	86.1	86.1	85.6	40	58.9	1	4	292	0.00	29.675 
17:40	85.9	85.9	85.3	40	58.7	1	5	292	0.00	29.673 
17:45	85.5	85.5	84.9	40	58.4	0	2	270	0.00	29.668 
17:50	85.1	85.1	84.6	41	58.7	1	3	270	0.00	29.663 
17:55	84.9	84.9	84.4	41	58.5	1	2	292	0.00	29.660 
18:00	84.5	84.5	84.1	42	58.9	0	2	315	0.00	29.661 
18:05	84.3	84.3	84.1	43	59.3	0	2	270	0.00	29.660 
18:10	84.1	84.1	83.9	43	59.2	0	2	270	0.00	29.651 
18:15	84.0	84.0	84.1	45	60.3	0	0	---	0.00	29.646 
18:20	83.6	83.6	83.7	45	60.0	0	0	---	0.00	29.645 
18:25	83.4	83.4	83.7	46	60.4	0	0	---	0.00	29.644 
18:30	83.2	83.2	83.4	46	60.2	0	0	---	0.00	29.643 
18:35	82.8	82.8	83.2	47	60.5	0	0	---	0.00	29.636 
18:40	82.6	82.6	82.8	46	59.7	0	1	270	0.00	29.632 
18:45	82.2	82.2	82.7	48	60.5	0	0	---	0.00	29.632 
18:50	82.0	82.0	82.6	49	60.9	0	0	---	0.00	29.630 
18:55	81.8	81.8	82.4	49	60.7	0	0	---	0.00	29.629 
19:00	81.6	81.6	82.2	49	60.6	0	1	270	0.00	29.629 
19:05	81.4	81.4	82.1	50	60.9	0	1	270	0.00	29.632 
19:10	81.1	81.1	81.8	50	60.7	0	0	---	0.00	29.638 
19:15	81.1	81.1	81.7	49	60.1	0	0	---	0.00	29.647 
19:20	80.9	80.9	81.6	50	60.5	0	0	---	0.00	29.647 
19:25	80.7	80.7	81.6	51	60.9	0	0	---	0.00	29.649 
19:30	80.5	80.5	81.4	51	60.7	0	0	---	0.00	29.661 
19:35	80.3	80.3	81.2	51	60.5	0	0	---	0.00	29.663 
19:40	80.1	80.1	81.1	52	60.9	0	0	---	0.00	29.672 
19:45	79.9	79.9	81.0	53	61.2	0	0	---	0.00	29.678 
19:50	79.8	79.8	81.0	54	61.7	0	0	---	0.00	29.680 
19:55	79.6	79.6	80.7	53	60.9	0	0	---	0.00	29.683 
20:00	79.4	79.4	80.6	54	61.3	0	0	---	0.00	29.687 
20:05	79.4	79.4	80.6	54	61.3	0	0	---	0.00	29.684 
20:10	79.2	79.2	80.4	54	61.1	0	0	---	0.00	29.683 
20:15	79.0	79.0	80.3	55	61.4	0	0	---	0.00	29.684 
20:20	78.8	78.8	80.1	55	61.2	0	1	270	0.00	29.684 
20:25	78.6	78.6	80.0	55	61.1	0	1	270	0.00	29.689 
20:30	78.6	78.6	80.1	57	62.1	0	3	270	0.00	29.691 
20:35	78.8	78.8	80.3	58	62.8	0	1	270	0.00	29.691 
20:40	78.8	78.8	80.5	60	63.7	0	1	270	0.00	29.692 
20:45	78.8	78.8	80.6	62	64.7	0	2	270	0.00	29.694 
20:50	78.8	78.8	80.7	64	65.6	1	2	270	0.00	29.695 
20:55	78.8	78.8	80.8	65	66.0	0	3	270	0.00	29.699 
21:00	78.6	78.6	80.6	66	66.3	0	2	315	0.00	29.703 
21:05	78.5	78.5	80.5	67	66.6	0	1	315	0.00	29.701 
21:10	78.3	78.3	80.4	69	67.3	0	2	315	0.00	29.700 
21:15	78.1	78.1	80.1	69	67.1	1	3	315	0.00	29.703 
21:20	77.9	77.9	79.9	69	66.9	0	1	292	0.00	29.703 
21:25	77.7	77.7	79.6	69	66.7	0	1	292	0.00	29.704 
21:30	77.6	77.6	79.5	70	67.0	0	1	292	0.00	29.705 
21:35	77.4	77.4	79.3	70	66.8	0	1	292	0.00	29.709 
21:40	77.2	77.2	79.0	70	66.6	0	1	292	0.00	29.711 
21:45	77.0	77.0	78.8	71	66.9	0	1	292	0.00	29.709 
21:50	76.8	76.8	78.5	71	66.7	0	0	---	0.00	29.710 
21:55	76.8	76.8	78.5	71	66.7	0	0	---	0.00	29.710 
22:00	76.7	76.7	78.4	71	66.6	0	1	292	0.00	29.708 
22:05	76.5	76.5	78.2	71	66.4	0	0	---	0.00	29.704 
22:10	76.3	76.3	77.9	71	66.2	0	0	---	0.00	29.705 
22:15	76.1	76.1	77.7	72	66.4	0	0	---	0.00	29.705 
22:20	75.8	75.8	77.3	72	66.1	0	0	---	0.00	29.704 
22:25	75.6	75.6	77.0	73	66.3	0	0	---	0.00	29.704 
22:30	75.4	75.4	76.8	73	66.1	0	0	---	0.00	29.707 
22:35	75.1	75.1	76.4	74	66.2	0	0	---	0.00	29.708 
22:40	75.1	75.1	76.4	74	66.2	0	1	292	0.00	29.708 
22:45	74.9	74.9	74.9	74	66.0	0	1	292	0.00	29.709 
22:50	74.9	74.9	74.9	74	66.0	0	1	292	0.00	29.714 
22:55	74.9	74.9	74.9	74	66.0	0	1	292	0.00	29.716 
23:00	74.7	74.7	74.7	74	65.8	0	1	292	0.00	29.716 
23:05	74.7	74.7	74.7	74	65.8	0	1	292	0.00	29.715 
23:10	74.6	74.6	74.6	74	65.7	0	1	292	0.00	29.715 
23:15	74.6	74.6	74.6	73	65.4	0	1	292	0.00	29.715 
23:20	74.6	74.6	74.6	73	65.4	0	1	292	0.00	29.715 
23:25	74.4	74.4	74.4	74	65.6	0	1	292	0.00	29.715 
23:30	74.2	74.2	74.2	74	65.4	0	1	292	0.00	29.717 
23:35	74.0	74.0	74.0	74	65.2	0	1	292	0.00	29.716 
23:40	73.9	73.9	73.9	75	65.5	0	1	292	0.00	29.717 
23:45	73.9	73.9	73.9	75	65.5	0	1	292	0.00	29.718 
23:50	73.7	73.7	73.7	75	65.3	0	1	292	0.00	29.720 
23:55	73.5	73.5	73.5	76	65.5	0	0	---	0.00	29.719 

CoCoRaHS
IN-AL-39
A2 Web Hosting
Creative Commons License
GoDaddy
Look for:

loaded 2017-10-20 19:45:53 • last modified 2010-11-18 10:43:29
Privacy PolicyDisclaimer
• wx.awcolley.com is powered by PmWiki v.2002016 •
• all content (unless otherwise noted) © 2017 A W Colley